sensor_id;sensor_type;location;lat;lon;timestamp;temperature;humidity
85036;DHT22;75357;49.780;9.448;2024-01-25T00:02:07;9.60;65.30
85036;DHT22;75357;49.780;9.448;2024-01-25T00:04:35;9.60;65.40
85036;DHT22;75357;49.780;9.448;2024-01-25T00:07:07;9.60;64.80
85036;DHT22;75357;49.780;9.448;2024-01-25T00:09:38;9.70;64.30
85036;DHT22;75357;49.780;9.448;2024-01-25T00:12:08;9.50;64.50
85036;DHT22;75357;49.780;9.448;2024-01-25T00:14:37;9.50;64.10
85036;DHT22;75357;49.780;9.448;2024-01-25T00:17:08;9.50;63.80
85036;DHT22;75357;49.780;9.448;2024-01-25T00:19:38;9.60;63.00
85036;DHT22;75357;49.780;9.448;2024-01-25T00:22:10;9.60;63.20
85036;DHT22;75357;49.780;9.448;2024-01-25T00:24:40;9.60;63.30
85036;DHT22;75357;49.780;9.448;2024-01-25T00:27:09;9.50;63.50
85036;DHT22;75357;49.780;9.448;2024-01-25T00:29:40;9.60;62.50
85036;DHT22;75357;49.780;9.448;2024-01-25T00:32:11;9.60;62.50
85036;DHT22;75357;49.780;9.448;2024-01-25T00:34:41;9.60;62.60
85036;DHT22;75357;49.780;9.448;2024-01-25T00:37:14;9.60;63.00
85036;DHT22;75357;49.780;9.448;2024-01-25T00:39:43;9.50;63.10
85036;DHT22;75357;49.780;9.448;2024-01-25T00:42:13;9.50;63.30
85036;DHT22;75357;49.780;9.448;2024-01-25T00:44:43;9.60;63.50
85036;DHT22;75357;49.780;9.448;2024-01-25T00:47:16;9.60;63.70
85036;DHT22;75357;49.780;9.448;2024-01-25T00:49:45;9.50;64.10
85036;DHT22;75357;49.780;9.448;2024-01-25T00:52:18;9.50;64.40
85036;DHT22;75357;49.780;9.448;2024-01-25T00:54:51;9.50;64.30
85036;DHT22;75357;49.780;9.448;2024-01-25T00:57:22;9.50;64.30
85036;DHT22;75357;49.780;9.448;2024-01-25T00:59:52;9.50;64.30
85036;DHT22;75357;49.780;9.448;2024-01-25T01:02:25;9.50;64.20
85036;DHT22;75357;49.780;9.448;2024-01-25T01:04:59;9.50;64.20
85036;DHT22;75357;49.780;9.448;2024-01-25T01:07:29;9.50;64.60
85036;DHT22;75357;49.780;9.448;2024-01-25T01:09:59;9.40;64.50
85036;DHT22;75357;49.780;9.448;2024-01-25T01:12:28;9.40;64.20
85036;DHT22;75357;49.780;9.448;2024-01-25T01:14:59;9.40;64.40
85036;DHT22;75357;49.780;9.448;2024-01-25T01:17:34;9.30;64.20
85036;DHT22;75357;49.780;9.448;2024-01-25T01:20:04;9.30;64.10
85036;DHT22;75357;49.780;9.448;2024-01-25T01:22:35;9.30;64.00
85036;DHT22;75357;49.780;9.448;2024-01-25T01:25:05;9.30;63.90
85036;DHT22;75357;49.780;9.448;2024-01-25T01:27:35;9.30;63.80
85036;DHT22;75357;49.780;9.448;2024-01-25T01:30:05;9.30;63.70
85036;DHT22;75357;49.780;9.448;2024-01-25T01:32:37;9.20;63.30
85036;DHT22;75357;49.780;9.448;2024-01-25T01:35:07;9.30;63.20
85036;DHT22;75357;49.780;9.448;2024-01-25T01:37:36;9.30;63.30
85036;DHT22;75357;49.780;9.448;2024-01-25T01:40:06;9.30;63.10
85036;DHT22;75357;49.780;9.448;2024-01-25T01:42:37;9.30;63.20
85036;DHT22;75357;49.780;9.448;2024-01-25T01:45:08;9.40;62.80
85036;DHT22;75357;49.780;9.448;2024-01-25T01:47:41;9.30;62.90
85036;DHT22;75357;49.780;9.448;2024-01-25T01:50:11;9.20;63.20
85036;DHT22;75357;49.780;9.448;2024-01-25T01:52:40;9.20;63.70
85036;DHT22;75357;49.780;9.448;2024-01-25T01:55:11;9.20;63.20
85036;DHT22;75357;49.780;9.448;2024-01-25T01:57:41;9.20;63.40
85036;DHT22;75357;49.780;9.448;2024-01-25T02:00:38;9.20;63.50
85036;DHT22;75357;49.780;9.448;2024-01-25T02:03:09;9.10;63.50
85036;DHT22;75357;49.780;9.448;2024-01-25T02:05:38;9.10;63.70
85036;DHT22;75357;49.780;9.448;2024-01-25T02:08:08;9.10;63.80
85036;DHT22;75357;49.780;9.448;2024-01-25T02:10:38;9.10;63.70
85036;DHT22;75357;49.780;9.448;2024-01-25T02:13:07;9.20;63.60
85036;DHT22;75357;49.780;9.448;2024-01-25T02:15:37;9.20;63.50
85036;DHT22;75357;49.780;9.448;2024-01-25T02:18:09;9.10;63.70
85036;DHT22;75357;49.780;9.448;2024-01-25T02:20:39;9.10;63.90
85036;DHT22;75357;49.780;9.448;2024-01-25T02:23:10;9.20;63.90
85036;DHT22;75357;49.780;9.448;2024-01-25T02:25:39;9.20;63.90
85036;DHT22;75357;49.780;9.448;2024-01-25T02:28:11;9.20;64.00
85036;DHT22;75357;49.780;9.448;2024-01-25T02:30:40;9.30;63.80
85036;DHT22;75357;49.780;9.448;2024-01-25T02:33:10;9.20;63.80
85036;DHT22;75357;49.780;9.448;2024-01-25T02:35:39;9.20;64.20
85036;DHT22;75357;49.780;9.448;2024-01-25T02:38:11;9.20;64.10
85036;DHT22;75357;49.780;9.448;2024-01-25T02:40:39;9.20;64.10
85036;DHT22;75357;49.780;9.448;2024-01-25T02:43:08;9.10;64.40
85036;DHT22;75357;49.780;9.448;2024-01-25T02:45:36;9.10;64.50
85036;DHT22;75357;49.780;9.448;2024-01-25T02:48:05;9.20;64.50
85036;DHT22;75357;49.780;9.448;2024-01-25T02:50:35;9.10;64.60
85036;DHT22;75357;49.780;9.448;2024-01-25T02:53:04;9.00;64.90
85036;DHT22;75357;49.780;9.448;2024-01-25T02:55:34;9.00;65.20
85036;DHT22;75357;49.780;9.448;2024-01-25T02:58:04;9.00;65.30
85036;DHT22;75357;49.780;9.448;2024-01-25T03:00:33;9.10;65.00
85036;DHT22;75357;49.780;9.448;2024-01-25T03:03:05;9.10;65.10
85036;DHT22;75357;49.780;9.448;2024-01-25T03:05:34;9.10;65.10
85036;DHT22;75357;49.780;9.448;2024-01-25T03:08:03;9.20;64.90
85036;DHT22;75357;49.780;9.448;2024-01-25T03:10:31;9.20;64.90
85036;DHT22;75357;49.780;9.448;2024-01-25T03:13:01;9.30;64.90
85036;DHT22;75357;49.780;9.448;2024-01-25T03:15:30;9.30;65.00
85036;DHT22;75357;49.780;9.448;2024-01-25T03:17:59;9.30;65.70
85036;DHT22;75357;49.780;9.448;2024-01-25T03:20:31;9.30;65.70
85036;DHT22;75357;49.780;9.448;2024-01-25T03:22:59;9.20;65.90
85036;DHT22;75357;49.780;9.448;2024-01-25T03:25:29;9.20;66.20
85036;DHT22;75357;49.780;9.448;2024-01-25T03:27:59;9.20;65.90
85036;DHT22;75357;49.780;9.448;2024-01-25T03:30:29;9.20;66.20
85036;DHT22;75357;49.780;9.448;2024-01-25T03:32:58;9.20;66.20
85036;DHT22;75357;49.780;9.448;2024-01-25T03:35:27;9.20;66.10
85036;DHT22;75357;49.780;9.448;2024-01-25T03:37:56;9.20;65.70
85036;DHT22;75357;49.780;9.448;2024-01-25T03:40:24;9.20;65.70
85036;DHT22;75357;49.780;9.448;2024-01-25T03:42:53;9.20;66.00
85036;DHT22;75357;49.780;9.448;2024-01-25T03:45:42;9.20;65.90
85036;DHT22;75357;49.780;9.448;2024-01-25T03:48:11;9.20;66.30
85036;DHT22;75357;49.780;9.448;2024-01-25T03:50:41;9.20;66.00
85036;DHT22;75357;49.780;9.448;2024-01-25T03:53:11;9.20;66.10
85036;DHT22;75357;49.780;9.448;2024-01-25T03:55:41;9.20;66.10
85036;DHT22;75357;49.780;9.448;2024-01-25T03:58:09;9.10;66.40
85036;DHT22;75357;49.780;9.448;2024-01-25T04:00:38;9.10;66.20
85036;DHT22;75357;49.780;9.448;2024-01-25T04:03:08;9.10;66.20
85036;DHT22;75357;49.780;9.448;2024-01-25T04:05:37;9.10;66.40
85036;DHT22;75357;49.780;9.448;2024-01-25T04:08:06;9.10;66.40
85036;DHT22;75357;49.780;9.448;2024-01-25T04:10:35;9.10;66.50
85036;DHT22;75357;49.780;9.448;2024-01-25T04:13:04;9.00;66.80
85036;DHT22;75357;49.780;9.448;2024-01-25T04:15:34;9.00;66.70
85036;DHT22;75357;49.780;9.448;2024-01-25T04:18:04;9.00;66.60
85036;DHT22;75357;49.780;9.448;2024-01-25T04:20:33;8.90;66.80
85036;DHT22;75357;49.780;9.448;2024-01-25T04:23:02;8.90;67.10
85036;DHT22;75357;49.780;9.448;2024-01-25T04:25:31;8.90;67.30
85036;DHT22;75357;49.780;9.448;2024-01-25T04:28:01;8.80;67.40
85036;DHT22;75357;49.780;9.448;2024-01-25T04:30:30;8.80;67.50
85036;DHT22;75357;49.780;9.448;2024-01-25T04:33:00;8.80;68.20
85036;DHT22;75357;49.780;9.448;2024-01-25T04:35:29;8.70;67.90
85036;DHT22;75357;49.780;9.448;2024-01-25T04:38:00;8.70;67.90
85036;DHT22;75357;49.780;9.448;2024-01-25T04:40:29;8.70;68.00
85036;DHT22;75357;49.780;9.448;2024-01-25T04:42:58;8.80;67.90
85036;DHT22;75357;49.780;9.448;2024-01-25T04:45:27;8.80;67.80
85036;DHT22;75357;49.780;9.448;2024-01-25T04:47:55;8.70;67.80
85036;DHT22;75357;49.780;9.448;2024-01-25T04:50:24;8.70;67.80
85036;DHT22;75357;49.780;9.448;2024-01-25T04:52:53;8.70;67.90
85036;DHT22;75357;49.780;9.448;2024-01-25T04:55:23;8.70;68.10
85036;DHT22;75357;49.780;9.448;2024-01-25T04:57:52;8.70;68.00
85036;DHT22;75357;49.780;9.448;2024-01-25T05:00:22;8.60;68.10
85036;DHT22;75357;49.780;9.448;2024-01-25T05:02:51;8.50;68.20
85036;DHT22;75357;49.780;9.448;2024-01-25T05:05:19;8.50;68.30
85036;DHT22;75357;49.780;9.448;2024-01-25T05:07:48;8.50;68.40
85036;DHT22;75357;49.780;9.448;2024-01-25T05:10:16;8.50;68.80
85036;DHT22;75357;49.780;9.448;2024-01-25T05:12:46;8.50;68.30
85036;DHT22;75357;49.780;9.448;2024-01-25T05:15:15;8.50;68.50
85036;DHT22;75357;49.780;9.448;2024-01-25T05:17:43;8.40;68.40
85036;DHT22;75357;49.780;9.448;2024-01-25T05:20:12;8.40;68.70
85036;DHT22;75357;49.780;9.448;2024-01-25T05:22:42;8.30;68.80
85036;DHT22;75357;49.780;9.448;2024-01-25T05:25:10;8.30;69.20
85036;DHT22;75357;49.780;9.448;2024-01-25T05:27:39;8.20;69.00
85036;DHT22;75357;49.780;9.448;2024-01-25T05:30:10;8.30;69.00
85036;DHT22;75357;49.780;9.448;2024-01-25T05:32:38;8.20;69.10
85036;DHT22;75357;49.780;9.448;2024-01-25T05:35:08;8.30;68.90
85036;DHT22;75357;49.780;9.448;2024-01-25T05:37:36;8.20;68.90
85036;DHT22;75357;49.780;9.448;2024-01-25T05:40:06;8.20;69.10
85036;DHT22;75357;49.780;9.448;2024-01-25T05:42:36;8.20;68.80
85036;DHT22;75357;49.780;9.448;2024-01-25T05:45:05;8.20;68.80
85036;DHT22;75357;49.780;9.448;2024-01-25T05:47:36;8.20;68.90
85036;DHT22;75357;49.780;9.448;2024-01-25T05:50:06;8.10;69.00
85036;DHT22;75357;49.780;9.448;2024-01-25T05:52:35;8.00;69.20
85036;DHT22;75357;49.780;9.448;2024-01-25T05:55:05;8.10;69.00
85036;DHT22;75357;49.780;9.448;2024-01-25T05:57:35;8.10;68.80
85036;DHT22;75357;49.780;9.448;2024-01-25T06:00:06;8.10;68.80
85036;DHT22;75357;49.780;9.448;2024-01-25T06:02:37;8.20;68.90
85036;DHT22;75357;49.780;9.448;2024-01-25T06:05:05;8.20;68.90
85036;DHT22;75357;49.780;9.448;2024-01-25T06:07:35;8.10;68.90
85036;DHT22;75357;49.780;9.448;2024-01-25T06:10:04;8.10;69.00
85036;DHT22;75357;49.780;9.448;2024-01-25T06:12:33;8.00;69.30
85036;DHT22;75357;49.780;9.448;2024-01-25T06:15:02;7.90;69.60
85036;DHT22;75357;49.780;9.448;2024-01-25T06:17:30;7.80;70.00
85036;DHT22;75357;49.780;9.448;2024-01-25T06:20:01;7.90;69.50
85036;DHT22;75357;49.780;9.448;2024-01-25T06:22:30;7.90;69.50
85036;DHT22;75357;49.780;9.448;2024-01-25T06:25:00;7.90;69.40
85036;DHT22;75357;49.780;9.448;2024-01-25T06:27:33;7.80;69.30
85036;DHT22;75357;49.780;9.448;2024-01-25T06:30:05;7.90;69.40
85036;DHT22;75357;49.780;9.448;2024-01-25T06:32:35;7.80;69.60
85036;DHT22;75357;49.780;9.448;2024-01-25T06:35:07;7.90;69.30
85036;DHT22;75357;49.780;9.448;2024-01-25T06:37:35;7.90;69.10
85036;DHT22;75357;49.780;9.448;2024-01-25T06:40:05;8.00;69.20
85036;DHT22;75357;49.780;9.448;2024-01-25T06:42:33;7.90;69.30
85036;DHT22;75357;49.780;9.448;2024-01-25T06:45:02;7.80;69.50
85036;DHT22;75357;49.780;9.448;2024-01-25T06:47:31;7.80;69.60
85036;DHT22;75357;49.780;9.448;2024-01-25T06:50:00;7.90;69.60
85036;DHT22;75357;49.780;9.448;2024-01-25T06:52:30;7.90;69.30
85036;DHT22;75357;49.780;9.448;2024-01-25T06:55:00;8.00;69.20
85036;DHT22;75357;49.780;9.448;2024-01-25T06:57:28;7.90;69.40
85036;DHT22;75357;49.780;9.448;2024-01-25T06:59:57;7.90;69.70
85036;DHT22;75357;49.780;9.448;2024-01-25T07:02:26;7.80;69.70
85036;DHT22;75357;49.780;9.448;2024-01-25T07:04:55;7.80;70.00
85036;DHT22;75357;49.780;9.448;2024-01-25T07:07:24;7.80;70.20
85036;DHT22;75357;49.780;9.448;2024-01-25T07:09:55;7.80;70.40
85036;DHT22;75357;49.780;9.448;2024-01-25T07:12:24;7.70;70.60
85036;DHT22;75357;49.780;9.448;2024-01-25T07:14:52;7.70;70.80
85036;DHT22;75357;49.780;9.448;2024-01-25T07:17:21;7.60;71.20
85036;DHT22;75357;49.780;9.448;2024-01-25T07:19:50;7.50;71.60
85036;DHT22;75357;49.780;9.448;2024-01-25T07:22:18;7.60;71.70
85036;DHT22;75357;49.780;9.448;2024-01-25T07:24:50;7.60;71.50
85036;DHT22;75357;49.780;9.448;2024-01-25T07:27:20;7.60;71.60
85036;DHT22;75357;49.780;9.448;2024-01-25T07:29:48;7.70;72.10
85036;DHT22;75357;49.780;9.448;2024-01-25T07:32:18;7.70;71.50
85036;DHT22;75357;49.780;9.448;2024-01-25T07:34:46;7.60;71.30
85036;DHT22;75357;49.780;9.448;2024-01-25T07:37:15;7.70;71.30
85036;DHT22;75357;49.780;9.448;2024-01-25T07:39:46;7.70;71.30
85036;DHT22;75357;49.780;9.448;2024-01-25T07:42:14;7.70;71.20
85036;DHT22;75357;49.780;9.448;2024-01-25T07:44:44;7.70;71.10
85036;DHT22;75357;49.780;9.448;2024-01-25T07:47:13;7.80;71.10
85036;DHT22;75357;49.780;9.448;2024-01-25T07:49:41;7.80;71.20
85036;DHT22;75357;49.780;9.448;2024-01-25T07:52:10;7.80;71.00
85036;DHT22;75357;49.780;9.448;2024-01-25T07:54:39;7.90;70.80
85036;DHT22;75357;49.780;9.448;2024-01-25T07:57:07;8.00;70.70
85036;DHT22;75357;49.780;9.448;2024-01-25T07:59:37;8.00;70.80
85036;DHT22;75357;49.780;9.448;2024-01-25T08:02:07;8.00;70.70
85036;DHT22;75357;49.780;9.448;2024-01-25T08:04:35;8.00;70.80
85036;DHT22;75357;49.780;9.448;2024-01-25T08:07:04;8.00;70.80
85036;DHT22;75357;49.780;9.448;2024-01-25T08:09:33;8.10;70.80
85036;DHT22;75357;49.780;9.448;2024-01-25T08:12:02;8.00;70.90
85036;DHT22;75357;49.780;9.448;2024-01-25T08:14:31;8.10;70.70
85036;DHT22;75357;49.780;9.448;2024-01-25T08:17:00;8.10;70.70
85036;DHT22;75357;49.780;9.448;2024-01-25T08:19:31;8.20;70.60
85036;DHT22;75357;49.780;9.448;2024-01-25T08:22:00;8.40;70.20
85036;DHT22;75357;49.780;9.448;2024-01-25T08:24:31;8.50;69.60
85036;DHT22;75357;49.780;9.448;2024-01-25T08:26:59;8.60;69.20
85036;DHT22;75357;49.780;9.448;2024-01-25T08:29:28;8.60;69.40
85036;DHT22;75357;49.780;9.448;2024-01-25T08:31:56;8.60;69.00
85036;DHT22;75357;49.780;9.448;2024-01-25T08:34:25;8.70;69.10
85036;DHT22;75357;49.780;9.448;2024-01-25T08:36:55;8.80;68.90
85036;DHT22;75357;49.780;9.448;2024-01-25T08:39:24;8.90;68.40
85036;DHT22;75357;49.780;9.448;2024-01-25T08:41:58;8.80;68.40
85036;DHT22;75357;49.780;9.448;2024-01-25T08:44:29;8.80;68.40
85036;DHT22;75357;49.780;9.448;2024-01-25T08:46:57;8.80;68.50
85036;DHT22;75357;49.780;9.448;2024-01-25T08:49:25;8.70;68.70
85036;DHT22;75357;49.780;9.448;2024-01-25T08:51:56;8.80;68.60
85036;DHT22;75357;49.780;9.448;2024-01-25T08:54:27;8.90;68.30
85036;DHT22;75357;49.780;9.448;2024-01-25T08:56:55;9.00;68.10
85036;DHT22;75357;49.780;9.448;2024-01-25T08:59:24;9.00;68.00
85036;DHT22;75357;49.780;9.448;2024-01-25T09:01:54;9.10;67.80
85036;DHT22;75357;49.780;9.448;2024-01-25T09:04:24;9.10;67.70
85036;DHT22;75357;49.780;9.448;2024-01-25T09:06:52;9.20;67.40
85036;DHT22;75357;49.780;9.448;2024-01-25T09:09:23;9.40;67.00
85036;DHT22;75357;49.780;9.448;2024-01-25T09:11:51;9.40;66.60
85036;DHT22;75357;49.780;9.448;2024-01-25T09:14:21;9.40;66.80
85036;DHT22;75357;49.780;9.448;2024-01-25T09:16:49;9.40;66.80
85036;DHT22;75357;49.780;9.448;2024-01-25T09:19:18;9.30;66.80
85036;DHT22;75357;49.780;9.448;2024-01-25T09:21:47;9.20;67.10
85036;DHT22;75357;49.780;9.448;2024-01-25T09:24:15;9.20;67.40
85036;DHT22;75357;49.780;9.448;2024-01-25T09:26:45;9.30;67.20
85036;DHT22;75357;49.780;9.448;2024-01-25T09:29:15;9.30;66.80
85036;DHT22;75357;49.780;9.448;2024-01-25T09:31:43;9.30;67.00
85036;DHT22;75357;49.780;9.448;2024-01-25T09:34:12;9.40;67.00
85036;DHT22;75357;49.780;9.448;2024-01-25T09:36:41;9.40;66.80
85036;DHT22;75357;49.780;9.448;2024-01-25T09:39:10;9.40;66.60
85036;DHT22;75357;49.780;9.448;2024-01-25T09:41:39;9.40;66.40
85036;DHT22;75357;49.780;9.448;2024-01-25T09:44:13;9.50;66.30
85036;DHT22;75357;49.780;9.448;2024-01-25T09:46:47;9.60;66.00
85036;DHT22;75357;49.780;9.448;2024-01-25T09:49:16;9.60;65.40
85036;DHT22;75357;49.780;9.448;2024-01-25T09:51:46;9.80;65.60
85036;DHT22;75357;49.780;9.448;2024-01-25T09:54:17;9.90;65.20
85036;DHT22;75357;49.780;9.448;2024-01-25T09:56:49;9.90;65.50
85036;DHT22;75357;49.780;9.448;2024-01-25T09:59:19;10.00;63.70
85036;DHT22;75357;49.780;9.448;2024-01-25T10:01:49;9.90;64.40
85036;DHT22;75357;49.780;9.448;2024-01-25T10:04:19;9.90;64.90
85036;DHT22;75357;49.780;9.448;2024-01-25T10:06:50;10.00;63.80
85036;DHT22;75357;49.780;9.448;2024-01-25T10:09:23;10.10;63.20
85036;DHT22;75357;49.780;9.448;2024-01-25T10:11:51;10.10;63.20
85036;DHT22;75357;49.780;9.448;2024-01-25T10:14:41;10.30;62.60
85036;DHT22;75357;49.780;9.448;2024-01-25T10:17:10;10.10;62.50
85036;DHT22;75357;49.780;9.448;2024-01-25T10:19:43;10.10;62.80
85036;DHT22;75357;49.780;9.448;2024-01-25T10:22:13;10.30;62.30
85036;DHT22;75357;49.780;9.448;2024-01-25T10:24:42;10.30;61.60
85036;DHT22;75357;49.780;9.448;2024-01-25T10:27:12;10.30;61.60
85036;DHT22;75357;49.780;9.448;2024-01-25T10:29:44;10.40;61.30
85036;DHT22;75357;49.780;9.448;2024-01-25T10:32:14;10.50;61.00
85036;DHT22;75357;49.780;9.448;2024-01-25T10:34:43;10.30;60.20
85036;DHT22;75357;49.780;9.448;2024-01-25T10:37:14;10.30;61.40
85036;DHT22;75357;49.780;9.448;2024-01-25T10:39:44;10.30;60.30
85036;DHT22;75357;49.780;9.448;2024-01-25T10:42:14;10.30;60.30
85036;DHT22;75357;49.780;9.448;2024-01-25T10:44:45;10.50;59.70
85036;DHT22;75357;49.780;9.448;2024-01-25T10:47:19;10.50;59.40
85036;DHT22;75357;49.780;9.448;2024-01-25T10:49:48;10.40;59.40
85036;DHT22;75357;49.780;9.448;2024-01-25T10:52:18;10.60;58.90
85036;DHT22;75357;49.780;9.448;2024-01-25T10:54:47;10.60;58.00
85036;DHT22;75357;49.780;9.448;2024-01-25T10:57:16;10.70;58.10
85036;DHT22;75357;49.780;9.448;2024-01-25T10:59:46;10.60;58.50
85036;DHT22;75357;49.780;9.448;2024-01-25T11:02:18;10.60;58.60
85036;DHT22;75357;49.780;9.448;2024-01-25T11:04:53;10.70;57.60
85036;DHT22;75357;49.780;9.448;2024-01-25T11:07:22;10.70;57.50
85036;DHT22;75357;49.780;9.448;2024-01-25T11:09:51;10.80;57.30
85036;DHT22;75357;49.780;9.448;2024-01-25T11:12:21;10.70;57.40
85036;DHT22;75357;49.780;9.448;2024-01-25T11:14:55;10.80;57.30
85036;DHT22;75357;49.780;9.448;2024-01-25T11:17:24;10.90;56.20
85036;DHT22;75357;49.780;9.448;2024-01-25T11:19:53;11.00;55.30
85036;DHT22;75357;49.780;9.448;2024-01-25T11:22:24;11.00;55.30
85036;DHT22;75357;49.780;9.448;2024-01-25T11:25:12;10.90;55.50
85036;DHT22;75357;49.780;9.448;2024-01-25T11:27:44;10.70;56.70
85036;DHT22;75357;49.780;9.448;2024-01-25T11:30:17;10.70;57.00
85036;DHT22;75357;49.780;9.448;2024-01-25T11:32:46;10.70;56.90
85036;DHT22;75357;49.780;9.448;2024-01-25T11:35:16;10.70;57.40
85036;DHT22;75357;49.780;9.448;2024-01-25T11:37:48;10.70;57.00
85036;DHT22;75357;49.780;9.448;2024-01-25T11:40:19;10.60;56.50
85036;DHT22;75357;49.780;9.448;2024-01-25T11:42:49;10.60;56.40
85036;DHT22;75357;49.780;9.448;2024-01-25T11:45:20;10.60;56.50
85036;DHT22;75357;49.780;9.448;2024-01-25T11:47:50;10.80;56.50
85036;DHT22;75357;49.780;9.448;2024-01-25T11:50:18;10.80;56.60
85036;DHT22;75357;49.780;9.448;2024-01-25T11:52:50;11.00;56.20
85036;DHT22;75357;49.780;9.448;2024-01-25T11:55:19;11.10;55.60
85036;DHT22;75357;49.780;9.448;2024-01-25T11:57:47;11.00;54.40
85036;DHT22;75357;49.780;9.448;2024-01-25T12:00:20;10.90;54.70
85036;DHT22;75357;49.780;9.448;2024-01-25T12:02:49;11.10;55.30
85036;DHT22;75357;49.780;9.448;2024-01-25T12:05:18;11.20;55.40
85036;DHT22;75357;49.780;9.448;2024-01-25T12:07:48;11.20;55.30
85036;DHT22;75357;49.780;9.448;2024-01-25T12:10:17;11.00;54.80
85036;DHT22;75357;49.780;9.448;2024-01-25T12:12:48;10.90;55.50
85036;DHT22;75357;49.780;9.448;2024-01-25T12:15:17;10.90;55.00
85036;DHT22;75357;49.780;9.448;2024-01-25T12:17:47;10.90;55.00
85036;DHT22;75357;49.780;9.448;2024-01-25T12:20:16;10.80;53.60
85036;DHT22;75357;49.780;9.448;2024-01-25T12:22:48;10.90;53.80
85036;DHT22;75357;49.780;9.448;2024-01-25T12:25:17;11.00;53.20
85036;DHT22;75357;49.780;9.448;2024-01-25T12:27:47;11.00;53.40
85036;DHT22;75357;49.780;9.448;2024-01-25T12:30:17;11.20;52.50
85036;DHT22;75357;49.780;9.448;2024-01-25T12:32:49;11.00;52.10
85036;DHT22;75357;49.780;9.448;2024-01-25T12:35:18;10.90;52.40
85036;DHT22;75357;49.780;9.448;2024-01-25T12:37:48;10.90;53.00
85036;DHT22;75357;49.780;9.448;2024-01-25T12:40:18;10.90;53.70
85036;DHT22;75357;49.780;9.448;2024-01-25T12:42:47;11.10;53.90
85036;DHT22;75357;49.780;9.448;2024-01-25T12:45:16;10.80;54.20
85036;DHT22;75357;49.780;9.448;2024-01-25T12:47:45;10.90;54.90
85036;DHT22;75357;49.780;9.448;2024-01-25T12:50:16;10.90;54.30
85036;DHT22;75357;49.780;9.448;2024-01-25T12:52:45;10.80;54.60
85036;DHT22;75357;49.780;9.448;2024-01-25T12:55:15;10.90;54.80
85036;DHT22;75357;49.780;9.448;2024-01-25T12:57:46;10.90;54.70
85036;DHT22;75357;49.780;9.448;2024-01-25T13:00:16;10.90;55.00
85036;DHT22;75357;49.780;9.448;2024-01-25T13:02:47;10.90;55.10
85036;DHT22;75357;49.780;9.448;2024-01-25T13:05:17;10.90;55.50
85036;DHT22;75357;49.780;9.448;2024-01-25T13:07:47;10.90;55.50
85036;DHT22;75357;49.780;9.448;2024-01-25T13:10:15;10.70;55.00
85036;DHT22;75357;49.780;9.448;2024-01-25T13:12:44;10.60;55.50
85036;DHT22;75357;49.780;9.448;2024-01-25T13:15:14;10.70;55.30
85036;DHT22;75357;49.780;9.448;2024-01-25T13:17:42;10.90;55.00
85036;DHT22;75357;49.780;9.448;2024-01-25T13:20:12;10.90;54.80
85036;DHT22;75357;49.780;9.448;2024-01-25T13:22:42;10.90;54.70
85036;DHT22;75357;49.780;9.448;2024-01-25T13:25:11;10.80;54.50
85036;DHT22;75357;49.780;9.448;2024-01-25T13:27:42;10.80;55.20
85036;DHT22;75357;49.780;9.448;2024-01-25T13:30:11;10.80;55.80
85036;DHT22;75357;49.780;9.448;2024-01-25T13:32:41;11.00;54.80
85036;DHT22;75357;49.780;9.448;2024-01-25T13:35:10;11.00;55.00
85036;DHT22;75357;49.780;9.448;2024-01-25T13:37:39;10.90;54.90
85036;DHT22;75357;49.780;9.448;2024-01-25T13:40:09;10.90;54.70
85036;DHT22;75357;49.780;9.448;2024-01-25T13:42:39;10.80;54.90
85036;DHT22;75357;49.780;9.448;2024-01-25T13:45:08;10.80;55.10
85036;DHT22;75357;49.780;9.448;2024-01-25T13:47:37;10.90;55.00
85036;DHT22;75357;49.780;9.448;2024-01-25T13:50:08;11.10;54.80
85036;DHT22;75357;49.780;9.448;2024-01-25T13:52:37;11.00;54.40
85036;DHT22;75357;49.780;9.448;2024-01-25T13:55:08;11.00;54.50
85036;DHT22;75357;49.780;9.448;2024-01-25T13:57:37;11.10;54.20
85036;DHT22;75357;49.780;9.448;2024-01-25T14:00:07;11.00;54.60
85036;DHT22;75357;49.780;9.448;2024-01-25T14:02:39;11.00;55.00
85036;DHT22;75357;49.780;9.448;2024-01-25T14:05:09;11.00;54.90
85036;DHT22;75357;49.780;9.448;2024-01-25T14:07:38;11.00;54.30
85036;DHT22;75357;49.780;9.448;2024-01-25T14:10:09;10.90;54.40
85036;DHT22;75357;49.780;9.448;2024-01-25T14:12:38;10.80;54.10
85036;DHT22;75357;49.780;9.448;2024-01-25T14:15:08;10.70;54.50
85036;DHT22;75357;49.780;9.448;2024-01-25T14:17:37;10.70;54.60
85036;DHT22;75357;49.780;9.448;2024-01-25T14:20:08;10.80;54.60
85036;DHT22;75357;49.780;9.448;2024-01-25T14:22:38;10.90;54.40
85036;DHT22;75357;49.780;9.448;2024-01-25T14:25:07;10.90;54.30
85036;DHT22;75357;49.780;9.448;2024-01-25T14:27:37;10.90;53.90
85036;DHT22;75357;49.780;9.448;2024-01-25T14:30:06;10.80;53.80
85036;DHT22;75357;49.780;9.448;2024-01-25T14:32:36;10.80;54.20
85036;DHT22;75357;49.780;9.448;2024-01-25T14:35:05;10.80;54.90
85036;DHT22;75357;49.780;9.448;2024-01-25T14:37:34;10.70;54.20
85036;DHT22;75357;49.780;9.448;2024-01-25T14:40:04;10.60;54.60
85036;DHT22;75357;49.780;9.448;2024-01-25T14:42:54;10.60;54.60
85036;DHT22;75357;49.780;9.448;2024-01-25T14:45:24;10.70;54.60
85036;DHT22;75357;49.780;9.448;2024-01-25T14:47:52;10.70;55.00
85036;DHT22;75357;49.780;9.448;2024-01-25T14:50:21;10.80;55.10
85036;DHT22;75357;49.780;9.448;2024-01-25T14:52:50;10.80;55.00
85036;DHT22;75357;49.780;9.448;2024-01-25T14:55:18;10.90;55.10
85036;DHT22;75357;49.780;9.448;2024-01-25T14:57:47;10.90;54.80
85036;DHT22;75357;49.780;9.448;2024-01-25T15:00:18;10.90;55.40
85036;DHT22;75357;49.780;9.448;2024-01-25T15:02:47;10.90;55.40
85036;DHT22;75357;49.780;9.448;2024-01-25T15:05:16;11.00;55.30
85036;DHT22;75357;49.780;9.448;2024-01-25T15:07:46;11.00;55.30
85036;DHT22;75357;49.780;9.448;2024-01-25T15:10:14;10.90;54.30
85036;DHT22;75357;49.780;9.448;2024-01-25T15:12:43;11.00;54.10
85036;DHT22;75357;49.780;9.448;2024-01-25T15:15:12;10.90;54.00
85036;DHT22;75357;49.780;9.448;2024-01-25T15:17:43;10.90;54.10
85036;DHT22;75357;49.780;9.448;2024-01-25T15:20:13;10.70;54.20
85036;DHT22;75357;49.780;9.448;2024-01-25T15:22:42;10.60;55.00
85036;DHT22;75357;49.780;9.448;2024-01-25T15:25:11;10.60;55.20
85036;DHT22;75357;49.780;9.448;2024-01-25T15:27:39;10.50;56.40
85036;DHT22;75357;49.780;9.448;2024-01-25T15:30:09;10.50;57.60
85036;DHT22;75357;49.780;9.448;2024-01-25T15:32:38;10.40;57.40
85036;DHT22;75357;49.780;9.448;2024-01-25T15:35:10;10.30;56.40
85036;DHT22;75357;49.780;9.448;2024-01-25T15:37:39;10.30;56.40
85036;DHT22;75357;49.780;9.448;2024-01-25T15:40:09;10.20;57.10
85036;DHT22;75357;49.780;9.448;2024-01-25T15:42:40;10.20;57.70
85036;DHT22;75357;49.780;9.448;2024-01-25T15:45:09;10.00;58.30
85036;DHT22;75357;49.780;9.448;2024-01-25T15:47:38;9.80;60.80
85036;DHT22;75357;49.780;9.448;2024-01-25T15:50:10;9.60;61.60
85036;DHT22;75357;49.780;9.448;2024-01-25T15:52:39;9.60;62.20
85036;DHT22;75357;49.780;9.448;2024-01-25T15:55:08;9.40;62.30
85036;DHT22;75357;49.780;9.448;2024-01-25T15:57:37;9.30;62.30